Time;durP1;ratioP1;P1;durP2;ratioP2;P2;SDS_P1;SDS_P2;PMS_P1;PMS_P2;Temp;Humidity;BMP_temperature;BMP_pressure;BME280_temperature;BME280_humidity;BME280_pressure;Samples;Min_cycle;Max_cycle;Signal;HPM_P1;HPM_P2
2021/12/14 00:01:35;;;;;;;3.23;2.30;;;;;;;18.79;51.40;101472.38;5111412;28;20459;-60
2021/12/14 00:04:06;;;;;;;3.17;2.03;;;;;;;18.81;51.08;101480.63;5112304;28;20411;-59
2021/12/14 00:06:36;;;;;;;3.50;2.13;;;;;;;18.77;51.40;101474.75;5104418;28;20440;-60
2021/12/14 00:09:03;;;;;;;3.63;2.50;;;;;;;18.81;51.21;101472.03;5110057;28;20953;-59
2021/12/14 00:17:00;;;;;;;2.60;1.93;;;;;;;18.73;52.05;101482.38;5028000;28;20502;-59
2021/12/14 00:19:27;;;;;;;3.67;2.20;;;;;;;18.79;50.98;101477.25;5029105;28;20975;-59
2021/12/14 00:21:54;;;;;;;4.00;2.20;;;;;;;18.77;51.18;101482.50;5061380;28;20219;-60
2021/12/14 00:24:21;;;;;;;3.00;2.20;;;;;;;18.76;51.32;101480.84;5090617;28;20841;-59
2021/12/14 00:26:54;;;;;;;3.07;1.83;;;;;;;18.79;51.29;101486.69;5093004;28;20447;-59
2021/12/14 00:29:39;;;;;;;3.63;2.60;;;;;;;18.78;51.22;101487.88;5095441;28;20424;-59
2021/12/14 00:32:07;;;;;;;3.77;2.60;;;;;;;18.78;50.93;101481.31;5091660;28;20412;-59
2021/12/14 00:34:42;;;;;;;3.30;2.10;;;;;;;18.80;51.54;101487.50;5073596;28;20415;-60
2021/12/14 00:37:11;;;;;;;4.57;2.60;;;;;;;18.78;51.09;101496.47;5082851;27;20970;-60
2021/12/14 00:39:36;;;;;;;2.90;1.80;;;;;;;18.77;51.33;101499.69;5110430;28;20446;-60
2021/12/14 00:42:02;;;;;;;3.33;2.40;;;;;;;18.74;51.34;101492.63;5107410;28;20436;-60
2021/12/14 00:44:28;;;;;;;3.23;2.47;;;;;;;18.75;51.41;101494.31;5100307;28;20178;-60
2021/12/14 00:46:53;;;;;;;3.27;2.10;;;;;;;18.77;51.21;101491.09;5090378;28;20420;-59
2021/12/14 00:49:19;;;;;;;4.03;2.60;;;;;;;18.74;51.46;101488.94;5091274;28;20173;-60
2021/12/14 00:51:44;;;;;;;4.80;2.13;;;;;;;18.75;51.72;101496.31;5093563;28;20189;-59
2021/12/14 00:54:12;;;;;;;3.43;2.37;;;;;;;18.74;51.35;101501.22;5095663;28;20272;-59
2021/12/14 00:56:38;;;;;;;3.03;2.13;;;;;;;18.73;51.37;101505.28;5112232;27;20182;-59
2021/12/14 00:59:04;;;;;;;4.50;2.13;;;;;;;18.74;51.83;101506.94;5104199;28;20547;-59
2021/12/14 01:01:32;;;;;;;3.07;2.27;;;;;;;18.72;51.48;101506.44;5089778;28;20705;-59
2021/12/14 01:04:00;;;;;;;3.20;2.10;;;;;;;18.74;51.51;101501.22;5095859;28;20481;-60
2021/12/14 01:06:27;;;;;;;3.50;2.20;;;;;;;18.69;51.82;101504.31;5111183;28;20494;-59
2021/12/14 01:08:53;;;;;;;3.70;2.40;;;;;;;18.75;51.24;101497.16;5110428;28;20419;-59
2021/12/14 01:11:33;;;;;;;3.30;2.10;;;;;;;18.72;52.07;101503.56;5111476;28;20806;-59
2021/12/14 01:14:18;;;;;;;3.03;2.20;;;;;;;18.72;51.46;101495.00;5083952;28;20185;-59
2021/12/14 01:16:53;;;;;;;3.70;2.37;;;;;;;18.67;51.84;101494.41;5110285;28;20488;-60
2021/12/14 01:19:26;;;;;;;3.17;2.57;;;;;;;18.65;51.80;101500.47;5099320;28;20464;-59
2021/12/14 01:22:48;;;;;;;3.50;2.53;;;;;;;18.73;51.25;101488.09;5096296;28;20448;-59
2021/12/14 01:27:20;;;;;;;2.90;2.10;;;;;;;18.71;51.37;101501.91;5114497;28;20451;-59
2021/12/14 01:29:48;;;;;;;3.47;2.70;;;;;;;18.71;51.53;101499.06;5101567;28;20435;-59
2021/12/14 01:32:16;;;;;;;3.50;2.57;;;;;;;18.72;51.46;101499.91;5093285;28;20408;-59
2021/12/14 01:34:41;;;;;;;2.63;1.73;;;;;;;18.67;51.52;101505.84;5096485;28;20866;-59
2021/12/14 01:37:12;;;;;;;2.80;2.20;;;;;;;18.72;51.27;101500.72;5105448;27;20454;-60
2021/12/14 01:42:07;;;;;;;3.20;2.07;;;;;;;18.65;51.51;101514.78;5106381;28;20420;-60
2021/12/14 01:44:38;;;;;;;3.37;2.13;;;;;;;18.71;51.33;101513.34;5096339;28;21002;-59
2021/12/14 01:47:07;;;;;;;3.70;2.37;;;;;;;18.73;50.99;101513.84;5097241;28;20408;-59
2021/12/14 01:49:32;;;;;;;4.90;2.10;;;;;;;18.69;51.58;101506.31;5096928;28;21012;-60
2021/12/14 01:52:01;;;;;;;2.57;2.03;;;;;;;18.66;51.29;101504.19;5111632;28;20425;-59
2021/12/14 01:54:30;;;;;;;2.90;2.00;;;;;;;18.71;51.19;101496.19;5114476;28;20629;-59
2021/12/14 01:56:55;;;;;;;3.60;2.57;;;;;;;18.69;51.21;101494.88;5111070;28;20427;-60
2021/12/14 01:59:27;;;;;;;2.97;2.13;;;;;;;18.75;51.20;101491.44;5107478;28;20775;-60
2021/12/14 02:02:07;;;;;;;3.07;2.17;;;;;;;18.67;51.61;101492.34;5113693;28;20328;-60
2021/12/14 02:04:33;;;;;;;3.03;2.00;;;;;;;18.68;51.28;101504.66;5115048;28;20460;-59
2021/12/14 02:07:00;;;;;;;2.90;2.10;;;;;;;18.61;51.90;101490.91;5092067;28;20923;-59
2021/12/14 02:09:27;;;;;;;3.57;2.40;;;;;;;18.65;51.67;101488.19;5098044;28;20198;-59
2021/12/14 02:11:54;;;;;;;3.13;2.03;;;;;;;18.64;51.53;101484.50;5093394;28;20521;-60
2021/12/14 02:14:20;;;;;;;3.03;2.30;;;;;;;18.70;51.18;101479.38;5062252;28;20471;-60
2021/12/14 02:16:49;;;;;;;2.80;2.00;;;;;;;18.68;51.45;101479.75;5093693;28;20456;-61
2021/12/14 02:19:15;;;;;;;3.10;2.20;;;;;;;18.64;51.51;101489.38;5100662;28;20197;-59
2021/12/14 02:21:43;;;;;;;3.27;2.00;;;;;;;18.63;51.61;101479.97;5095654;28;20412;-60
2021/12/14 02:24:09;;;;;;;2.53;2.10;;;;;;;18.63;51.43;101477.13;5107468;28;20641;-59
2021/12/14 02:26:36;;;;;;;3.40;2.40;;;;;;;18.63;51.55;101482.84;5098741;28;20435;-59
2021/12/14 02:29:04;;;;;;;3.37;2.07;;;;;;;18.60;51.65;101472.09;5092592;28;20217;-59
2021/12/14 02:31:30;;;;;;;2.80;2.00;;;;;;;18.58;51.80;101480.19;5096672;28;20440;-60
2021/12/14 02:33:57;;;;;;;2.80;2.30;;;;;;;18.62;51.39;101483.19;5100595;28;20442;-59
2021/12/14 02:36:27;;;;;;;3.57;2.10;;;;;;;18.67;51.37;101492.34;5090725;28;20421;-60
2021/12/14 02:39:05;;;;;;;2.97;1.70;;;;;;;18.64;51.88;101484.50;5105534;27;20489;-60
2021/12/14 02:41:31;;;;;;;2.40;1.73;;;;;;;18.64;51.34;101486.50;5077283;28;20475;-60
2021/12/14 02:43:57;;;;;;;2.53;1.97;;;;;;;18.60;51.68;101472.09;5096099;28;21011;-60
2021/12/14 02:46:22;;;;;;;3.10;2.20;;;;;;;18.61;51.54;101470.91;5086394;27;20427;-60
2021/12/14 02:48:53;;;;;;;3.73;3.17;;;;;;;18.62;51.50;101475.41;5117654;27;20645;-59
2021/12/14 02:51:27;;;;;;;3.30;2.10;;;;;;;18.57;51.60;101475.66;5101079;28;20169;-59
2021/12/14 02:53:54;;;;;;;3.23;2.20;;;;;;;18.61;51.26;101481.53;5106392;28;20527;-59
2021/12/14 02:56:22;;;;;;;3.00;1.90;;;;;;;18.61;51.54;101508.06;5091724;28;20427;-59
2021/12/14 02:58:47;;;;;;;3.37;2.23;;;;;;;18.56;51.81;101505.44;5097104;28;21054;-59
2021/12/14 03:01:13;;;;;;;3.10;2.00;;;;;;;18.59;51.50;101504.75;5100666;28;20495;-59
2021/12/14 03:03:38;;;;;;;3.10;2.20;;;;;;;18.62;51.37;101494.63;5110623;28;20183;-59
2021/12/14 03:06:05;;;;;;;2.67;1.80;;;;;;;18.53;51.59;101503.31;5104586;28;20178;-59
2021/12/14 03:08:33;;;;;;;2.80;2.13;;;;;;;18.60;51.45;101494.13;5112300;28;20180;-59
2021/12/14 03:11:10;;;;;;;3.20;2.30;;;;;;;18.60;51.60;101502.69;5102558;28;20551;-59
2021/12/14 03:13:50;;;;;;;2.40;1.70;;;;;;;18.56;51.98;101511.16;5112966;28;20399;-60
2021/12/14 03:16:17;;;;;;;3.10;1.90;;;;;;;18.60;51.48;101525.59;5108976;28;20435;-59
2021/12/14 03:18:44;;;;;;;3.10;2.17;;;;;;;18.60;51.60;101529.28;5101888;28;20467;-60
2021/12/14 03:21:14;;;;;;;6.47;2.33;;;;;;;18.61;51.57;101533.00;5111199;28;20411;-59
2021/12/14 03:23:48;;;;;;;5.40;2.47;;;;;;;18.57;52.07;101535.72;5109942;28;20435;-60
2021/12/14 03:26:16;;;;;;;2.30;1.90;;;;;;;18.57;51.51;101524.25;5105745;28;20417;-60
2021/12/14 03:28:45;;;;;;;4.07;2.50;;;;;;;18.60;51.70;101525.59;5112151;28;20411;-59
2021/12/14 03:31:10;;;;;;;2.83;1.97;;;;;;;18.60;51.87;101529.28;5113047;28;20411;-59
2021/12/14 03:33:43;;;;;;;2.60;1.90;;;;;;;18.63;51.45;101522.03;5108844;28;20436;-61
2021/12/14 03:36:15;;;;;;;2.87;2.10;;;;;;;18.56;51.54;101521.78;5112371;28;20962;-59
2021/12/14 03:38:46;;;;;;;3.13;2.23;;;;;;;18.57;51.38;101518.53;5119969;27;20466;-59
2021/12/14 03:41:17;;;;;;;3.00;2.10;;;;;;;18.52;51.78;101503.66;5103963;28;20407;-59
2021/12/14 03:43:50;;;;;;;3.00;2.00;;;;;;;18.57;51.36;101504.25;5093454;28;21184;-60
2021/12/14 03:46:15;;;;;;;3.53;2.40;;;;;;;18.53;51.98;101509.03;5097106;28;20952;-59
2021/12/14 03:48:41;;;;;;;2.93;2.03;;;;;;;18.53;51.59;101514.75;5092303;28;20408;-60
2021/12/14 03:51:06;;;;;;;2.63;1.80;;;;;;;18.56;51.59;101518.91;5103543;28;20178;-60
2021/12/14 03:53:32;;;;;;;3.77;2.20;;;;;;;18.55;51.54;101515.22;5099453;28;20535;-60
2021/12/14 03:55:59;;;;;;;3.53;2.10;;;;;;;18.54;51.81;101507.81;5107743;28;20178;-60
2021/12/14 03:58:30;;;;;;;3.03;2.03;;;;;;;18.54;51.72;101506.97;5091211;28;20194;-59
2021/12/14 04:00:58;;;;;;;3.03;2.00;;;;;;;18.57;51.91;101509.16;5103473;28;20966;-59
2021/12/14 04:03:24;;;;;;;3.73;2.00;;;;;;;18.56;51.54;101499.72;5093021;28;20418;-59
2021/12/14 04:05:50;;;;;;;2.83;2.00;;;;;;;18.56;51.88;101501.75;5101889;28;20440;-60
2021/12/14 04:08:16;;;;;;;2.63;1.93;;;;;;;18.55;51.64;101488.63;5112106;28;20910;-60
2021/12/14 04:10:42;;;;;;;3.10;1.97;;;;;;;18.49;51.61;101487.19;5111487;28;20200;-59
2021/12/14 04:13:08;;;;;;;2.53;1.70;;;;;;;18.52;51.93;101486.50;5112203;28;20166;-60
2021/12/14 04:15:34;;;;;;;3.27;2.20;;;;;;;18.57;51.20;101487.09;5101139;28;20446;-59
2021/12/14 04:17:59;;;;;;;2.80;1.90;;;;;;;18.54;51.71;101489.81;5111644;28;20197;-59
2021/12/14 04:20:31;;;;;;;2.67;1.90;;;;;;;18.51;52.21;101479.09;5102977;28;20220;-60
2021/12/14 04:22:56;;;;;;;3.50;1.80;;;;;;;18.55;51.56;101486.63;5110715;28;20169;-59
2021/12/14 04:25:25;;;;;;;3.27;2.07;;;;;;;18.57;51.63;101487.09;5111232;28;20585;-60
2021/12/14 04:27:51;;;;;;;2.60;1.90;;;;;;;18.58;51.56;101500.22;5111824;28;20161;-59
2021/12/14 04:30:17;;;;;;;2.63;1.97;;;;;;;18.53;51.60;101506.16;5101274;28;20842;-59
2021/12/14 04:32:49;;;;;;;3.20;2.03;;;;;;;18.54;51.66;101506.97;5073699;28;20451;-59
2021/12/14 04:35:16;;;;;;;2.67;1.80;;;;;;;18.53;51.58;101499.59;5093145;28;20432;-59
2021/12/14 04:37:43;;;;;;;3.30;2.30;;;;;;;18.55;51.52;101497.19;5118422;27;20426;-60
2021/12/14 04:54:02;;;;;;;3.37;2.07;;;;;;;18.55;51.63;101465.75;5101182;28;20560;-59
2021/12/14 04:56:41;;;;;;;3.30;1.97;;;;;;;18.59;51.37;101443.84;5092203;28;20523;-59
2021/12/14 04:59:20;;;;;;;3.50;2.30;;;;;;;18.59;51.07;101441.81;5094425;28;20459;-60
2021/12/14 05:01:46;;;;;;;2.90;2.13;;;;;;;18.65;51.21;101436.69;5096812;28;20576;-59
2021/12/14 05:04:15;;;;;;;2.40;1.90;;;;;;;18.62;51.52;101435.38;5090103;28;20790;-59
2021/12/14 05:06:50;;;;;;;2.67;2.00;;;;;;;18.57;51.40;101432.75;5098032;28;20469;-59
2021/12/14 05:11:47;;;;;;;3.30;1.87;;;;;;;18.55;51.44;101458.00;5091207;28;20384;-60
2021/12/14 05:14:15;;;;;;;2.70;1.90;;;;;;;18.62;51.14;101458.25;5093508;28;20424;-59
2021/12/14 05:16:41;;;;;;;5.37;2.30;;;;;;;18.61;51.76;101459.44;5105515;28;20415;-60
2021/12/14 05:19:07;;;;;;;3.03;2.20;;;;;;;18.57;51.45;101444.19;5109923;28;21030;-59
2021/12/14 05:21:46;;;;;;;2.40;1.80;;;;;;;18.55;51.28;101452.28;5089605;28;20186;-59
2021/12/14 05:24:15;;;;;;;3.67;2.00;;;;;;;18.53;51.47;101459.56;5109295;28;20815;-59
2021/12/14 05:26:41;;;;;;;2.60;2.00;;;;;;;18.60;51.22;101449.22;5110799;28;20411;-59
2021/12/14 05:29:09;;;;;;;2.53;1.80;;;;;;;18.56;51.15;101448.25;5107594;28;20431;-59
2021/12/14 05:31:40;;;;;;;4.37;2.07;;;;;;;18.55;51.20;101445.72;5103351;28;20428;-60
2021/12/14 05:34:05;;;;;;;3.63;2.27;;;;;;;18.57;51.64;101443.38;5072592;28;20503;-59
2021/12/14 05:36:30;;;;;;;2.77;1.93;;;;;;;18.55;51.53;101437.16;5077350;28;20796;-59
2021/12/14 05:39:17;;;;;;;2.63;1.90;;;;;;;18.57;51.46;101423.34;5129272;28;20200;-60
2021/12/14 05:44:19;;;;;;;3.10;2.13;;;;;;;18.60;51.30;101451.22;5107445;28;20439;-59
2021/12/14 05:46:50;;;;;;;3.57;2.43;;;;;;;18.56;51.36;101456.81;5091338;28;20466;-60
2021/12/14 05:49:20;;;;;;;3.40;2.33;;;;;;;18.55;51.44;101448.59;5092003;28;20428;-59
2021/12/14 05:51:46;;;;;;;3.23;1.90;;;;;;;18.54;51.79;101444.91;5094393;28;20432;-59
2021/12/14 05:54:29;;;;;;;2.90;1.57;;;;;;;18.57;51.59;101444.19;5089486;28;20412;-60
2021/12/14 05:56:55;;;;;;;3.13;2.17;;;;;;;18.59;51.32;101430.38;5103723;28;20453;-59
2021/12/14 05:59:23;;;;;;;2.93;2.00;;;;;;;18.59;51.21;101435.25;5091374;28;20482;-60
2021/12/14 06:01:49;;;;;;;3.07;2.20;;;;;;;18.55;51.40;101443.72;5082599;28;20479;-59
2021/12/14 06:04:15;;;;;;;3.20;2.20;;;;;;;18.54;51.47;101438.34;5093180;28;20434;-59
2021/12/14 06:06:49;;;;;;;3.57;2.00;;;;;;;18.54;51.30;101422.03;5073782;28;20174;-59
2021/12/14 06:09:27;;;;;;;3.90;2.30;;;;;;;18.56;51.34;101435.97;5086636;28;20197;-59
2021/12/14 06:12:00;;;;;;;3.33;2.20;;;;;;;18.53;51.68;101430.97;5111056;28;20405;-59
2021/12/14 06:14:27;;;;;;;4.13;2.33;;;;;;;18.56;51.34;101431.06;5114647;28;20603;-59
2021/12/14 06:17:01;;;;;;;3.47;2.40;;;;;;;18.56;51.54;101433.94;5104010;28;20438;-60
2021/12/14 06:19:34;;;;;;;3.53;2.20;;;;;;;18.54;51.54;101438.34;5093660;28;20492;-60
2021/12/14 06:22:06;;;;;;;3.50;1.83;;;;;;;18.62;50.96;101446.81;5095852;28;20974;-60
2021/12/14 06:24:34;;;;;;;3.70;2.47;;;;;;;18.60;51.28;101449.22;5098672;28;21020;-59
2021/12/14 06:27:01;;;;;;;3.80;2.50;;;;;;;18.58;51.36;101425.88;5092587;28;20412;-59
2021/12/14 06:29:33;;;;;;;3.37;2.20;;;;;;;18.58;51.34;101434.44;5093898;28;20427;-59
2021/12/14 06:32:25;;;;;;;3.60;2.00;;;;;;;18.61;51.11;101444.34;5096803;28;20440;-60
2021/12/14 06:34:52;;;;;;;3.50;2.23;;;;;;;18.65;51.21;101445.28;5113220;28;20416;-60
2021/12/14 06:40:10;;;;;;;3.20;2.30;;;;;;;18.63;51.10;101442.78;5095525;27;20475;-59
2021/12/14 06:42:42;;;;;;;3.13;2.43;;;;;;;18.64;50.92;101415.00;5098747;28;20787;-59
2021/12/14 06:45:16;;;;;;;2.93;2.07;;;;;;;18.66;51.09;101413.47;5092839;28;20453;-59
2021/12/14 06:47:42;;;;;;;3.30;1.90;;;;;;;18.63;51.25;101419.06;5098695;28;20408;-59
2021/12/14 06:50:11;;;;;;;3.60;2.07;;;;;;;18.63;51.59;101413.34;5105094;28;20448;-59
2021/12/14 06:52:37;;;;;;;2.50;1.80;;;;;;;18.57;51.21;101412.72;5108372;28;20439;-60
2021/12/14 06:55:04;;;;;;;2.70;2.10;;;;;;;18.57;51.50;101423.34;5094383;28;20428;-60
2021/12/14 06:57:29;;;;;;;2.90;1.97;;;;;;;18.59;51.42;101421.81;5116189;27;20185;-60
2021/12/14 06:59:55;;;;;;;2.80;2.03;;;;;;;18.60;51.39;101432.06;5111781;28;20463;-60
2021/12/14 07:02:22;;;;;;;3.73;2.40;;;;;;;18.63;51.04;101424.78;5105568;28;20796;-60
2021/12/14 07:04:49;;;;;;;2.57;1.63;;;;;;;18.60;51.41;101417.75;5092071;28;20413;-59
2021/12/14 07:07:17;;;;;;;3.10;1.87;;;;;;;18.58;51.32;101417.28;5106051;28;20446;-59
2021/12/14 07:09:48;;;;;;;3.50;1.80;;;;;;;18.59;51.06;101413.22;5092141;28;20455;-59
2021/12/14 07:12:15;;;;;;;2.93;2.20;;;;;;;18.62;51.21;101435.38;5095043;28;20447;-60
2021/12/14 07:15:19;;;;;;;3.40;2.10;;;;;;;18.63;51.17;101433.38;5096601;28;20497;-59
2021/12/14 07:17:54;;;;;;;2.63;1.70;;;;;;;18.59;51.22;101427.53;5088272;28;20901;-59
2021/12/14 07:20:25;;;;;;;3.07;2.00;;;;;;;18.63;51.06;101436.22;5092611;28;20862;-59
2021/12/14 07:22:52;;;;;;;3.03;2.20;;;;;;;18.62;51.15;101446.00;5109145;28;20472;-59
2021/12/14 07:25:31;;;;;;;3.00;2.20;;;;;;;18.59;51.33;101456.13;5108644;28;20419;-59
2021/12/14 07:27:58;;;;;;;2.90;2.10;;;;;;;18.57;51.60;101449.91;5102432;28;20444;-59
2021/12/14 07:30:39;;;;;;;2.97;1.80;;;;;;;18.57;51.38;101457.66;5092143;28;20436;-60
2021/12/14 07:33:11;;;;;;;3.47;1.87;;;;;;;18.59;51.29;101461.84;5094827;28;20412;-60
2021/12/14 07:35:39;;;;;;;3.53;2.30;;;;;;;18.60;51.15;101472.09;5092410;28;20458;-59
2021/12/14 07:38:32;;;;;;;4.17;2.10;;;;;;;18.59;51.29;101472.44;5106653;27;20574;-60
2021/12/14 07:41:10;;;;;;;3.40;2.30;;;;;;;18.57;51.20;101487.09;5091915;28;20473;-59
2021/12/14 07:43:44;;;;;;;3.13;2.17;;;;;;;18.65;51.02;101485.31;5092477;28;20408;-59
2021/12/14 07:46:27;;;;;;;3.67;2.40;;;;;;;18.62;51.59;101478.28;5094834;28;20438;-59
2021/12/14 07:49:05;;;;;;;2.53;2.00;;;;;;;18.56;51.40;101482.56;5094385;28;20845;-59
2021/12/14 07:51:32;;;;;;;3.07;2.17;;;;;;;18.57;51.43;101506.28;5091960;28;20427;-59
2021/12/14 07:54:10;;;;;;;3.10;1.87;;;;;;;18.59;51.12;101513.31;5094771;28;20445;-60
2021/12/14 07:56:46;;;;;;;3.40;2.20;;;;;;;18.61;51.35;101512.97;5104393;28;20483;-59
2021/12/14 07:59:29;;;;;;;3.03;2.03;;;;;;;18.59;51.39;101495.31;5091570;28;20452;-60
2021/12/14 08:02:24;;;;;;;3.60;2.00;;;;;;;18.59;51.44;101498.19;5102572;28;20503;-60
2021/12/14 08:04:58;;;;;;;3.10;2.27;;;;;;;18.59;51.18;101516.19;5091564;28;20459;-59
2021/12/14 08:07:32;;;;;;;2.87;2.20;;;;;;;18.57;51.15;101512.81;5091748;28;20400;-60
2021/12/14 08:10:13;;;;;;;2.83;2.07;;;;;;;18.65;51.40;101511.91;5094274;28;20527;-59
2021/12/14 08:13:05;;;;;;;3.13;2.07;;;;;;;18.64;50.98;101495.94;5097271;28;20935;-60
2021/12/14 08:15:35;;;;;;;4.37;2.10;;;;;;;18.63;51.16;101497.13;5059449;28;20907;-59
2021/12/14 08:18:25;;;;;;;2.80;2.10;;;;;;;18.65;50.92;101500.47;5091901;28;20448;-59
2021/12/14 08:20:59;;;;;;;2.50;1.77;;;;;;;18.66;51.34;101502.13;5104607;28;20493;-59
2021/12/14 08:23:31;;;;;;;3.80;1.97;;;;;;;18.62;51.23;101494.63;5091153;28;20496;-59
2021/12/14 08:26:06;;;;;;;3.07;2.13;;;;;;;18.55;51.21;101503.78;5091401;28;20770;-59
2021/12/14 08:28:33;;;;;;;3.60;2.43;;;;;;;18.61;51.53;101519.53;5102364;28;20469;-59
2021/12/14 08:31:04;;;;;;;3.40;2.40;;;;;;;18.64;50.96;101506.53;5111362;28;20447;-59
2021/12/14 08:33:30;;;;;;;4.30;2.03;;;;;;;18.68;51.33;101504.66;5103763;28;20444;-59
2021/12/14 08:35:57;;;;;;;3.20;2.20;;;;;;;18.65;51.24;101514.78;5107503;28;20430;-59
2021/12/14 08:38:22;;;;;;;3.40;2.13;;;;;;;18.63;51.00;101504.88;5098487;28;20292;-59
2021/12/14 08:40:53;;;;;;;4.23;2.00;;;;;;;18.66;50.99;101510.72;5112046;28;20454;-59
2021/12/14 08:43:24;;;;;;;3.53;2.43;;;;;;;18.62;51.18;101483.19;5107905;28;20189;-59
2021/12/14 08:45:54;;;;;;;2.57;1.70;;;;;;;18.61;51.28;101493.78;5093120;28;20452;-59
2021/12/14 08:48:34;;;;;;;2.50;1.90;;;;;;;18.62;51.23;101506.06;5090509;28;20420;-59
2021/12/14 08:51:15;;;;;;;3.20;2.00;;;;;;;18.63;51.14;101491.41;5104470;27;20454;-59
2021/12/14 08:53:55;;;;;;;3.90;2.30;;;;;;;18.66;50.95;101493.56;5110064;28;20415;-59
2021/12/14 08:56:22;;;;;;;2.50;1.80;;;;;;;18.63;51.26;101516.31;5111188;28;20406;-60
2021/12/14 08:58:48;;;;;;;2.60;1.87;;;;;;;18.58;51.77;101503.09;5111284;28;20455;-59
2021/12/14 09:01:16;;;;;;;3.00;2.10;;;;;;;18.64;50.98;101507.38;5104048;28;20629;-61
2021/12/14 09:03:53;;;;;;;3.13;2.03;;;;;;;18.67;50.92;101515.25;5095267;28;20261;-60
2021/12/14 09:06:20;;;;;;;3.13;1.93;;;;;;;18.62;51.30;101521.19;5090271;28;20887;-59
2021/12/14 09:08:47;;;;;;;3.00;1.97;;;;;;;18.62;51.45;101526.91;5096797;28;20530;-59
2021/12/14 09:11:13;;;;;;;3.07;2.00;;;;;;;18.55;51.58;101529.50;5089586;28;20432;-60
2021/12/14 09:13:39;;;;;;;3.60;2.23;;;;;;;18.65;51.25;101529.06;5099486;28;20443;-61
2021/12/14 09:16:29;;;;;;;3.47;2.10;;;;;;;18.62;51.05;101524.03;5110917;28;20795;-60
2021/12/14 09:19:03;;;;;;;4.47;3.00;;;;;;;18.61;51.26;101522.38;5106186;28;20214;-60
2021/12/14 09:21:32;;;;;;;3.77;2.40;;;;;;;18.63;51.22;101520.03;5110566;28;20500;-60
2021/12/14 09:23:59;;;;;;;3.30;2.10;;;;;;;18.61;51.65;101522.38;5093781;28;20413;-60
2021/12/14 09:26:28;;;;;;;2.47;1.70;;;;;;;18.60;51.36;101520.72;5098230;28;20447;-60
2021/12/14 09:28:53;;;;;;;3.57;2.30;;;;;;;18.63;51.16;101533.47;5089651;28;20950;-61
2021/12/14 09:31:24;;;;;;;3.30;1.90;;;;;;;18.60;51.35;101526.44;5092636;28;20577;-61
2021/12/14 09:33:50;;;;;;;2.50;1.90;;;;;;;18.66;51.10;101535.66;5108174;28;20178;-61
2021/12/14 09:36:16;;;;;;;3.17;2.17;;;;;;;18.62;51.14;101534.66;5108501;28;20460;-60
2021/12/14 09:38:48;;;;;;;4.20;2.03;;;;;;;18.64;51.18;101538.00;5109905;28;20459;-60
2021/12/14 09:41:15;;;;;;;3.10;2.03;;;;;;;18.65;51.21;101554.81;5110067;28;20261;-60
2021/12/14 09:43:42;;;;;;;3.73;2.23;;;;;;;18.60;51.55;101552.19;5096226;28;20527;-60
2021/12/14 09:46:08;;;;;;;3.00;2.20;;;;;;;18.65;51.03;101545.38;5079451;28;20412;-60
2021/12/14 09:48:41;;;;;;;3.00;2.20;;;;;;;18.63;51.25;101539.19;5095497;28;20470;-60
2021/12/14 09:51:12;;;;;;;2.47;1.80;;;;;;;18.61;51.56;101548.13;5106347;28;20892;-61
2021/12/14 09:53:40;;;;;;;3.10;2.20;;;;;;;18.58;51.31;101540.25;5114170;28;20409;-61
2021/12/14 09:56:06;;;;;;;2.70;1.87;;;;;;;18.61;51.48;101553.03;5104219;28;20530;-61
2021/12/14 09:58:34;;;;;;;2.70;1.90;;;;;;;18.62;51.58;101557.56;5094911;28;20543;-60
2021/12/14 10:00:59;;;;;;;3.00;2.23;;;;;;;18.62;52.21;101555.50;5094359;28;20315;-60
2021/12/14 10:03:25;;;;;;;3.00;2.00;;;;;;;18.65;51.40;101546.22;5108200;28;20582;-61
2021/12/14 10:05:56;;;;;;;2.87;2.20;;;;;;;18.62;51.49;101544.06;5095414;28;20180;-61
2021/12/14 10:08:35;;;;;;;2.83;2.03;;;;;;;18.64;51.05;101538.84;5097245;28;20183;-60
2021/12/14 10:11:23;;;;;;;8.33;3.00;;;;;;;18.55;51.30;101542.97;5113831;28;20443;-60
2021/12/14 10:13:48;;;;;;;10.57;5.70;;;;;;;18.44;50.37;101547.44;5111453;28;20910;-60
2021/12/14 10:16:14;;;;;;;19.63;6.50;;;;;;;18.44;49.05;101542.56;5105681;28;20446;-60
2021/12/14 10:18:43;;;;;;;22.30;8.07;;;;;;;18.45;49.18;101547.09;5112125;28;20202;-60
2021/12/14 10:21:21;;;;;;;22.47;9.00;;;;;;;18.47;48.49;101541.84;5111590;28;20182;-60
2021/12/14 10:23:47;;;;;;;25.83;10.30;;;;;;;18.43;48.56;101545.78;5100230;28;20423;-61
2021/12/14 10:26:13;;;;;;;24.47;12.40;;;;;;;18.52;48.01;101544.50;5092687;28;20507;-60
2021/12/14 10:28:39;;;;;;;24.60;11.33;;;;;;;18.71;48.61;101530.53;5105800;28;20573;-60
2021/12/14 10:31:11;;;;;;;37.37;12.47;;;;;;;18.93;48.32;101530.13;5110343;28;20675;-60
2021/12/14 10:33:38;;;;;;;32.43;11.30;;;;;;;19.00;48.31;101530.38;5101954;28;20825;-60
2021/12/14 10:36:18;;;;;;;42.90;12.43;;;;;;;18.84;48.49;101529.38;5093191;28;20434;-60
2021/12/14 10:42:41;;;;;;;28.53;12.43;;;;;;;18.82;48.24;101528.06;5115207;27;20455;-60
2021/12/14 10:44:32;;;;;;;27.13;12.10;;;;;;;18.99;48.35;101543.00;5095265;28;20783;-60
2021/12/14 10:46:58;;;;;;;36.10;11.47;;;;;;;18.87;49.17;101537.25;5103106;28;21123;-60
2021/12/14 10:49:24;;;;;;;25.20;10.30;;;;;;;18.96;48.54;101529.41;5112286;27;20478;-59
2021/12/14 10:51:55;;;;;;;22.03;10.57;;;;;;;18.83;49.76;101522.00;5100481;28;20201;-60
2021/12/14 10:54:21;;;;;;;27.57;12.50;;;;;;;18.71;49.29;101518.25;5102351;28;20900;-61
2021/12/14 10:56:51;;;;;;;26.00;11.83;;;;;;;18.70;50.28;101511.69;5099204;28;20443;-60
2021/12/14 10:59:19;;;;;;;32.07;11.07;;;;;;;18.64;51.07;101513.09;5092506;28;21032;-60
2021/12/14 11:01:50;;;;;;;39.73;13.00;;;;;;;18.64;50.61;101503.69;5097740;28;20970;-60
2021/12/14 11:04:20;;;;;;;45.10;11.57;;;;;;;18.64;50.94;101497.97;5114512;27;20416;-60
2021/12/14 11:06:46;;;;;;;31.40;12.07;;;;;;;18.62;51.21;101494.63;5108207;28;20518;-61
2021/12/14 11:11:49;;;;;;;27.93;10.60;;;;;;;18.62;50.57;101494.63;5092193;28;20456;-60
2021/12/14 11:14:24;;;;;;;42.93;12.00;;;;;;;18.66;50.58;101498.47;5092948;28;20431;-61
2021/12/14 11:19:42;;;;;;;27.20;11.93;;;;;;;18.65;50.16;101494.75;5092268;28;20498;-60
2021/12/14 11:22:47;;;;;;;18.73;9.50;;;;;;;18.68;50.23;101496.91;5076800;28;20445;-60
2021/12/14 11:25:16;;;;;;;20.83;9.53;;;;;;;18.66;50.49;101492.75;5077126;28;20931;-60
2021/12/14 11:27:48;;;;;;;25.93;10.30;;;;;;;18.71;50.51;101490.47;5094466;28;20428;-60
2021/12/14 11:30:41;;;;;;;24.67;9.43;;;;;;;18.71;50.38;101501.91;5104876;28;20420;-60
2021/12/14 11:33:12;;;;;;;20.27;8.70;;;;;;;18.77;50.19;101509.06;5110132;28;20450;-60
2021/12/14 11:35:58;;;;;;;24.20;8.80;;;;;;;18.74;50.42;101508.94;5106216;28;20980;-60
2021/12/14 11:38:30;;;;;;;25.53;7.40;;;;;;;18.71;50.90;101510.50;5108439;27;20550;-61
2021/12/14 11:40:58;;;;;;;16.13;8.33;;;;;;;18.76;51.04;101518.84;5095990;28;20427;-60
2021/12/14 11:43:25;;;;;;;24.20;8.13;;;;;;;18.75;50.66;101522.91;5093660;28;20471;-60
2021/12/14 11:45:52;;;;;;;21.53;7.63;;;;;;;18.76;50.80;101520.91;5109871;28;20423;-60
2021/12/14 11:48:32;;;;;;;23.00;7.47;;;;;;;18.65;51.51;101525.38;5111701;28;20422;-60
2021/12/14 11:51:00;;;;;;;24.37;7.57;;;;;;;18.72;51.27;101519.94;5112767;28;20419;-60
2021/12/14 11:53:25;;;;;;;21.70;6.73;;;;;;;18.70;51.57;101528.84;5106130;27;20446;-61
2021/12/14 11:55:56;;;;;;;14.73;7.30;;;;;;;18.73;51.16;101525.31;5132392;27;20477;-60
2021/12/14 11:58:23;;;;;;;20.13;6.80;;;;;;;18.73;50.85;101519.56;5113540;27;20213;-60
2021/12/14 12:00:51;;;;;;;22.70;6.70;;;;;;;18.74;51.17;101524.09;5109885;28;20478;-60
2021/12/14 12:03:33;;;;;;;24.30;7.10;;;;;;;18.72;51.39;101520.75;5109802;28;20418;-60
2021/12/14 12:06:09;;;;;;;19.97;5.90;;;;;;;18.74;51.46;101524.09;5087890;28;20975;-60
2021/12/14 12:11:23;;;;;;;15.10;5.63;;;;;;;18.74;51.20;101529.81;5099024;28;20438;-60
2021/12/14 12:13:53;;;;;;;12.53;6.23;;;;;;;18.73;51.57;101522.44;5091160;28;20825;-60
2021/12/14 12:16:25;;;;;;;13.37;5.40;;;;;;;18.81;51.07;101524.34;5097241;28;20295;-61
2021/12/14 12:19:10;;;;;;;17.23;5.53;;;;;;;18.75;51.61;101531.50;5111758;28;20478;-60
2021/12/14 12:21:37;;;;;;;17.70;5.50;;;;;;;18.77;51.39;101517.66;5109542;28;20428;-61
2021/12/14 12:24:03;;;;;;;13.50;5.53;;;;;;;18.78;51.49;101522.22;5114801;27;20426;-60